createdAt,value
2022-12-26T00:04:48.195Z,3.03
2022-12-26T00:09:51.463Z,3.97
2022-12-26T00:14:53.664Z,2.42
2022-12-26T00:19:55.813Z,1.90
2022-12-26T00:24:58.386Z,2.50
2022-12-26T00:30:00.484Z,2.42
2022-12-26T00:35:03.020Z,2.28
2022-12-26T00:40:06.250Z,2.03
2022-12-26T00:45:08.645Z,2.73
2022-12-26T00:50:13.406Z,2.78
2022-12-26T00:55:16.637Z,3.57
2022-12-26T01:00:18.790Z,3.00
2022-12-26T01:05:20.845Z,2.80
2022-12-26T01:10:23.001Z,2.60
2022-12-26T01:15:25.137Z,3.17
2022-12-26T01:20:27.985Z,2.42
2022-12-26T01:25:30.091Z,2.40
2022-12-26T01:30:32.283Z,2.03
2022-12-26T01:35:34.341Z,2.28
2022-12-26T01:40:42.197Z,2.33
2022-12-26T01:45:50.783Z,2.00
2022-12-26T01:51:05.511Z,1.70
2022-12-26T01:56:12.012Z,2.43
2022-12-26T02:01:14.972Z,2.50
2022-12-26T02:06:17.689Z,2.07
2022-12-26T02:11:43.425Z,2.08
2022-12-26T02:16:46.256Z,2.23
2022-12-26T02:22:19.112Z,2.17
2022-12-26T02:27:21.110Z,2.63
2022-12-26T02:32:38.245Z,1.95
2022-12-26T02:38:18.604Z,2.03
2022-12-26T02:43:59.971Z,2.47
2022-12-26T02:49:21.706Z,1.77
2022-12-26T02:55:04.089Z,2.17
2022-12-26T03:00:35.705Z,1.93
2022-12-26T03:06:14.425Z,2.10
2022-12-26T03:11:35.318Z,2.40
2022-12-26T03:16:56.251Z,1.70
2022-12-26T03:22:00.746Z,1.73
2022-12-26T03:27:02.819Z,2.17
2022-12-26T03:32:08.625Z,2.42
2022-12-26T03:37:25.953Z,2.47
2022-12-26T03:43:41.149Z,2.10
2022-12-26T03:49:22.171Z,2.40
2022-12-26T03:54:52.985Z,2.20
2022-12-26T04:00:30.349Z,2.03
2022-12-26T04:05:54.227Z,2.20
2022-12-26T04:11:17.959Z,1.90
2022-12-26T04:16:56.569Z,2.13
2022-12-26T04:22:56.037Z,2.53
2022-12-26T04:28:17.128Z,1.90
2022-12-26T04:34:01.033Z,1.90
2022-12-26T04:39:25.374Z,1.97
2022-12-26T04:44:29.211Z,1.77
2022-12-26T04:50:03.519Z,2.27
2022-12-26T04:55:05.935Z,1.80
2022-12-26T05:00:09.046Z,1.83
2022-12-26T05:05:29.815Z,1.30
2022-12-26T05:10:32.873Z,2.40
2022-12-26T05:15:55.334Z,1.83
2022-12-26T05:21:19.974Z,2.03
2022-12-26T05:26:42.334Z,2.20
2022-12-26T05:31:44.673Z,1.73
2022-12-26T05:36:51.621Z,2.17
2022-12-26T05:41:53.913Z,2.50
2022-12-26T05:46:56.916Z,1.92
2022-12-26T05:51:59.045Z,2.37
2022-12-26T05:57:01.635Z,2.20
2022-12-26T06:02:04.055Z,2.28
2022-12-26T06:07:06.348Z,2.00
2022-12-26T06:12:08.421Z,1.87
2022-12-26T06:17:10.518Z,1.90
2022-12-26T06:22:12.651Z,1.73
2022-12-26T06:27:14.745Z,2.20
2022-12-26T06:32:16.938Z,2.25
2022-12-26T06:37:19.030Z,1.80
2022-12-26T06:42:21.077Z,1.50
2022-12-26T06:47:23.248Z,1.62
2022-12-26T06:52:25.341Z,1.90
2022-12-26T06:57:27.444Z,1.40
2022-12-26T07:02:29.759Z,1.75
2022-12-26T07:07:31.985Z,1.65
2022-12-26T07:12:34.721Z,2.92
2022-12-26T07:22:39.207Z,1.27
2022-12-26T07:27:41.395Z,1.40
2022-12-26T07:32:43.537Z,1.50
2022-12-26T07:37:45.746Z,1.08
2022-12-26T07:42:47.843Z,1.40
2022-12-26T07:47:57.198Z,1.42
2022-12-26T07:53:00.846Z,1.00
2022-12-26T07:58:02.963Z,1.60
2022-12-26T08:03:08.576Z,1.20
2022-12-26T08:08:10.727Z,1.90
2022-12-26T08:13:12.817Z,1.50
2022-12-26T08:18:14.951Z,1.52
2022-12-26T08:23:17.115Z,1.42
2022-12-26T08:28:19.245Z,1.17
2022-12-26T08:33:21.407Z,1.12
2022-12-26T08:38:26.188Z,1.08
2022-12-26T08:43:53.228Z,0.93
2022-12-26T08:48:54.818Z,1.37
2022-12-26T08:53:56.904Z,0.93
2022-12-26T08:58:58.999Z,1.00
2022-12-26T09:04:02.933Z,1.23
2022-12-26T09:09:07.084Z,1.20
2022-12-26T09:14:09.840Z,1.03
2022-12-26T09:24:17.670Z,1.50
2022-12-26T09:29:19.834Z,0.70
2022-12-26T09:34:21.978Z,1.00
2022-12-26T09:39:24.299Z,0.90
2022-12-26T09:44:44.502Z,0.50
2022-12-26T09:50:00.458Z,0.60
2022-12-26T09:55:55.492Z,1.02
2022-12-26T10:01:15.042Z,0.80
2022-12-26T10:06:18.859Z,0.75
2022-12-26T10:11:52.647Z,0.75
2022-12-26T10:16:57.764Z,0.88
2022-12-26T10:22:09.111Z,1.53
2022-12-26T10:27:15.813Z,0.70
2022-12-26T10:32:28.251Z,1.15
2022-12-26T10:37:39.513Z,0.50
2022-12-26T10:42:44.611Z,1.10
2022-12-26T10:47:50.294Z,0.68
2022-12-26T10:52:52.464Z,0.93
2022-12-26T10:57:55.799Z,0.90
2022-12-26T11:03:10.274Z,0.73
2022-12-26T11:08:24.481Z,1.08
2022-12-26T11:13:27.101Z,1.55
2022-12-26T11:18:34.260Z,0.85
2022-12-26T11:23:36.424Z,0.62
2022-12-26T11:28:38.825Z,1.33
2022-12-26T11:33:46.537Z,1.27
2022-12-26T11:38:59.670Z,0.80
2022-12-26T11:49:05.096Z,0.70
2022-12-26T11:54:26.479Z,0.80
2022-12-26T11:59:29.353Z,0.70
2022-12-26T12:04:31.589Z,1.58
2022-12-26T12:09:57.035Z,1.45
2022-12-26T12:15:15.573Z,0.88
2022-12-26T12:20:41.542Z,0.85
2022-12-26T12:26:00.570Z,0.62
2022-12-26T12:31:07.673Z,1.02
2022-12-26T12:36:23.717Z,0.95
2022-12-26T12:41:58.463Z,0.68
2022-12-26T12:47:11.599Z,0.80
2022-12-26T12:52:29.723Z,0.80
2022-12-26T12:58:00.795Z,0.73
2022-12-26T13:03:24.398Z,0.98
2022-12-26T13:08:29.673Z,1.60
2022-12-26T13:13:56.952Z,1.27
2022-12-26T13:19:04.590Z,2.22
2022-12-26T13:24:31.125Z,1.48
2022-12-26T13:29:42.450Z,1.20
2022-12-26T13:34:46.101Z,1.48
2022-12-26T13:39:52.819Z,0.75
2022-12-26T13:44:55.118Z,0.57
2022-12-26T13:49:57.269Z,1.20
2022-12-26T13:55:06.629Z,0.95
2022-12-26T14:00:24.870Z,0.82
2022-12-26T14:05:39.218Z,0.82
2022-12-26T14:11:09.537Z,0.73
2022-12-26T14:16:19.113Z,0.60
2022-12-26T14:21:50.855Z,0.62
2022-12-26T14:27:21.488Z,1.10
2022-12-26T14:32:39.351Z,0.83
2022-12-26T14:38:22.909Z,0.60
2022-12-26T14:43:40.582Z,1.10
2022-12-26T14:48:47.718Z,1.33
2022-12-26T14:54:19.879Z,1.00
2022-12-26T14:59:31.799Z,1.73
2022-12-26T15:04:51.600Z,5.17
2022-12-26T15:10:15.634Z,1.80
2022-12-26T15:15:28.390Z,1.00
2022-12-26T15:20:50.946Z,1.70
2022-12-26T15:25:55.728Z,0.80
2022-12-26T15:31:28.182Z,1.03
2022-12-26T15:36:58.068Z,1.13
2022-12-26T15:42:12.196Z,0.80
2022-12-26T15:47:17.004Z,1.23
2022-12-26T15:53:02.059Z,1.10
2022-12-26T15:58:42.736Z,0.93
2022-12-26T16:03:53.687Z,0.60
2022-12-26T16:09:25.091Z,0.80
2022-12-26T16:14:36.074Z,0.63
2022-12-26T16:19:40.862Z,1.17
2022-12-26T16:24:44.187Z,0.70
2022-12-26T16:30:12.276Z,0.53
2022-12-26T16:35:38.840Z,0.97
2022-12-26T16:40:49.520Z,0.30
2022-12-26T16:45:54.965Z,0.65
2022-12-26T16:51:05.610Z,0.20
2022-12-26T16:56:28.890Z,0.50
2022-12-26T17:01:33.747Z,0.43
2022-12-26T17:06:40.582Z,0.60
2022-12-26T17:12:07.893Z,0.40
2022-12-26T17:17:22.082Z,0.40
2022-12-26T17:22:28.812Z,0.40
2022-12-26T17:27:32.394Z,0.50
2022-12-26T17:32:39.798Z,0.30
2022-12-26T17:37:43.231Z,0.40
2022-12-26T17:42:55.618Z,0.30
2022-12-26T17:47:58.689Z,0.22
2022-12-26T17:53:07.032Z,1.75
2022-12-26T17:58:13.570Z,3.10
2022-12-26T18:03:15.868Z,1.63
2022-12-26T18:08:37.131Z,2.90
2022-12-26T18:13:39.643Z,0.30
2022-12-26T18:18:44.333Z,0.30
2022-12-26T18:23:46.489Z,0.80
2022-12-26T18:28:50.354Z,1.42
2022-12-26T18:33:52.552Z,0.67
2022-12-26T18:38:54.699Z,0.50
2022-12-26T18:43:58.227Z,1.08
2022-12-26T18:49:00.446Z,1.27
2022-12-26T18:54:02.556Z,0.43
2022-12-26T18:59:04.727Z,0.60
2022-12-26T19:04:06.925Z,0.15
2022-12-26T19:09:14.399Z,0.35
2022-12-26T19:14:22.675Z,0.50
2022-12-26T19:19:26.909Z,1.00
2022-12-26T19:24:29.017Z,0.30
2022-12-26T19:29:31.180Z,0.30
2022-12-26T19:34:33.310Z,0.40
2022-12-26T19:39:35.562Z,0.30
2022-12-26T19:44:37.664Z,0.40
2022-12-26T19:49:40.757Z,0.57
2022-12-26T19:54:43.008Z,0.50
2022-12-26T19:59:45.523Z,0.60
2022-12-26T20:04:47.736Z,0.60
2022-12-26T20:09:49.911Z,0.65
2022-12-26T20:14:52.494Z,0.35
2022-12-26T20:19:54.761Z,1.15
2022-12-26T20:24:56.950Z,0.65
2022-12-26T20:29:59.058Z,1.52
2022-12-26T20:35:01.187Z,0.25
2022-12-26T20:40:04.621Z,0.40
2022-12-26T20:50:10.516Z,0.60
2022-12-26T21:00:16.843Z,0.20
2022-12-26T21:05:19.341Z,0.47
2022-12-26T21:10:22.088Z,0.50
2022-12-26T21:15:24.215Z,0.65
2022-12-26T21:20:26.731Z,1.55
2022-12-26T21:25:29.295Z,1.00
2022-12-26T21:30:31.877Z,0.60
2022-12-26T21:40:43.652Z,2.93
2022-12-26T21:45:45.794Z,3.35
2022-12-26T21:50:48.058Z,3.92
2022-12-26T21:55:50.239Z,3.90
2022-12-26T22:00:52.369Z,1.40
2022-12-26T22:05:54.692Z,1.62
2022-12-26T22:11:15.295Z,2.45
2022-12-26T22:16:19.788Z,2.50
2022-12-26T22:21:23.868Z,1.60
2022-12-26T22:26:27.842Z,1.80
2022-12-26T22:31:32.353Z,1.50
2022-12-26T22:36:35.935Z,4.40
2022-12-26T22:41:38.561Z,1.33
2022-12-26T22:51:43.569Z,0.53
2022-12-26T22:56:45.724Z,0.30
2022-12-26T23:01:47.963Z,0.30
2022-12-26T23:06:50.357Z,0.45
2022-12-26T23:12:11.357Z,0.60
2022-12-26T23:17:36.062Z,0.90
2022-12-26T23:22:38.580Z,1.23
2022-12-26T23:33:01.786Z,0.60
2022-12-26T23:38:03.859Z,0.30
2022-12-26T23:43:06.037Z,1.08
2022-12-26T23:48:08.199Z,0.65
2022-12-26T23:53:10.329Z,1.23
2022-12-26T23:58:12.842Z,1.58
